Time;durP1;ratioP1;P1;durP2;ratioP2;P2;SDS_P1;SDS_P2;PMS_P1;PMS_P2;Temp;Humidity;BMP_temperature;BMP_pressure;BME280_temperature;BME280_humidity;BME280_pressure;Samples;Min_cycle;Max_cycle;Signal;HPM_P1;HPM_P2
2024/04/25 00:00:30;;;;;;;;;;;;;;;11.31;39.82;99578.25;5198552;26;95609;-69
2024/04/25 00:02:56;;;;;;;;;;;;;;;11.30;39.83;99571.25;5197019;26;94401;-69
2024/04/25 00:05:22;;;;;;;;;;;;;;;11.29;40.28;99569.66;5221752;26;114358;-70
2024/04/25 00:07:48;;;;;;;;;;;;;;;11.27;40.33;99574.53;5222892;26;96206;-69
2024/04/25 00:10:14;;;;;;;;;;;;;;;11.26;40.25;99571.03;5226055;26;126264;-72
2024/04/25 00:12:41;;;;;;;;;;;;;;;11.25;39.90;99574.84;5194761;26;123397;-69
2024/04/25 00:15:07;;;;;;;;;;;;;;;11.24;40.24;99573.25;5228874;26;100990;-72
2024/04/25 00:17:33;;;;;;;;;;;;;;;11.22;40.24;99564.63;5206013;26;116434;-69
2024/04/25 00:19:59;;;;;;;;;;;;;;;11.22;39.96;99567.31;5199116;26;96094;-72
2024/04/25 00:22:25;;;;;;;;;;;;;;;11.20;40.26;99564.13;5273347;26;110244;-69
2024/04/25 00:24:51;;;;;;;;;;;;;;;11.20;40.34;99566.00;5257943;26;99145;-72
2024/04/25 00:27:17;;;;;;;;;;;;;;;11.18;39.93;99560.13;5203570;26;127023;-69
2024/04/25 00:29:43;;;;;;;;;;;;;;;11.16;40.07;99555.03;5219860;26;125154;-69
2024/04/25 00:32:09;;;;;;;;;;;;;;;11.15;39.98;99556.09;5196579;26;94459;-72
2024/04/25 00:34:35;;;;;;;;;;;;;;;11.13;40.06;99550.22;5220102;26;113969;-72
2024/04/25 00:37:01;;;;;;;;;;;;;;;11.12;40.09;99553.19;5218684;26;96203;-72
2024/04/25 00:39:28;;;;;;;;;;;;;;;11.11;40.40;99552.38;5206747;26;125396;-69
2024/04/25 00:41:53;;;;;;;;;;;;;;;11.10;39.84;99550.00;5223389;26;95031;-69
2024/04/25 00:44:19;;;;;;;;;;;;;;;11.09;40.00;99548.38;5198135;26;106614;-72
2024/04/25 00:46:45;;;;;;;;;;;;;;;11.07;39.87;99557.56;5221667;26;95777;-69
2024/04/25 00:49:12;;;;;;;;;;;;;;;11.05;40.12;99548.97;5194395;26;96149;-72
2024/04/25 00:51:38;;;;;;;;;;;;;;;11.05;40.49;99540.09;5229597;26;113577;-72
2024/04/25 00:54:04;;;;;;;;;;;;;;;11.05;40.10;99546.28;5221511;26;113562;-72
2024/04/25 00:56:31;;;;;;;;;;;;;;;11.03;40.49;99539.56;5190955;26;96547;-69
2024/04/25 00:58:57;;;;;;;;;;;;;;;11.01;40.44;99536.38;5229164;26;95844;-71
2024/04/25 01:01:23;;;;;;;;;;;;;;;10.99;39.97;99541.22;5263636;26;104972;-72
2024/04/25 01:03:50;;;;;;;;;;;;;;;10.98;39.91;99537.75;5218367;26;94553;-72
2024/04/25 01:06:18;;;;;;;;;;;;;;;10.96;40.17;99539.91;5216583;26;113342;-72
2024/04/25 01:08:44;;;;;;;;;;;;;;;10.96;40.50;99537.22;5246239;26;94554;-68
2024/04/25 01:11:10;;;;;;;;;;;;;;;10.94;39.89;99542.13;5227469;26;121356;-69
2024/04/25 01:13:36;;;;;;;;;;;;;;;10.91;40.19;99534.59;5219342;26;114323;-69
2024/04/25 01:16:04;;;;;;;;;;;;;;;10.92;40.43;99538.09;5216113;26;94037;-68
2024/04/25 01:18:30;;;;;;;;;;;;;;;10.91;40.26;99537.31;5221273;26;96380;-72
2024/04/25 01:20:56;;;;;;;;;;;;;;;10.88;39.99;99537.88;5190948;26;94626;-69
2024/04/25 01:23:22;;;;;;;;;;;;;;;10.88;40.23;99526.28;5200866;26;94347;-72
2024/04/25 01:25:48;;;;;;;;;;;;;;;10.86;40.40;99526.59;5189393;26;122575;-69
2024/04/25 01:28:15;;;;;;;;;;;;;;;10.85;40.46;99527.69;5219688;26;95499;-71
2024/04/25 01:30:41;;;;;;;;;;;;;;;10.83;40.14;99524.47;5207444;26;94620;-69
2024/04/25 01:33:07;;;;;;;;;;;;;;;10.82;40.11;99526.38;5222729;26;94266;-69
2024/04/25 01:35:33;;;;;;;;;;;;;;;10.80;40.48;99525.06;5248482;26;95520;-69
2024/04/25 01:37:59;;;;;;;;;;;;;;;10.80;40.38;99527.75;5220578;26;94669;-72
2024/04/25 01:40:26;;;;;;;;;;;;;;;10.79;40.30;99523.47;5193296;26;94541;-72
2024/04/25 01:42:52;;;;;;;;;;;;;;;10.78;39.91;99521.88;5225901;26;96390;-69
2024/04/25 01:45:17;;;;;;;;;;;;;;;10.78;40.37;99522.66;5249151;26;109589;-72
2024/04/25 01:47:43;;;;;;;;;;;;;;;10.77;40.31;99515.69;5256087;26;122595;-68
2024/04/25 01:50:09;;;;;;;;;;;;;;;10.78;40.10;99519.16;5219251;26;103649;-69
2024/04/25 01:52:35;;;;;;;;;;;;;;;10.78;40.04;99513.78;5226038;26;94304;-69
2024/04/25 01:55:01;;;;;;;;;;;;;;;10.79;40.27;99512.69;5219051;26;123609;-72
2024/04/25 01:57:27;;;;;;;;;;;;;;;10.80;40.36;99515.06;5189454;26;94984;-69
2024/04/25 01:59:53;;;;;;;;;;;;;;;10.80;40.17;99520.47;5253443;26;95058;-69
2024/04/25 02:02:19;;;;;;;;;;;;;;;10.80;40.33;99512.38;5252135;26;115974;-68
2024/04/25 02:04:45;;;;;;;;;;;;;;;10.80;39.94;99511.56;5227385;26;119613;-71
2024/04/25 02:07:12;;;;;;;;;;;;;;;10.81;39.88;99510.50;5194241;26;120972;-69
2024/04/25 02:09:38;;;;;;;;;;;;;;;10.82;40.43;99512.91;5228451;26;94707;-69
2024/04/25 02:12:04;;;;;;;;;;;;;;;10.83;39.87;99516.38;5274089;26;108422;-69
2024/04/25 02:14:30;;;;;;;;;;;;;;;10.84;39.98;99515.28;5201448;26;94128;-69
2024/04/25 02:16:56;;;;;;;;;;;;;;;10.85;40.42;99514.22;5220509;26;94157;-73
2024/04/25 02:19:22;;;;;;;;;;;;;;;10.85;39.86;99510.72;5218230;26;104098;-72
2024/04/25 02:27:18;;;;;;;;;;;;;;;10.85;40.15;99508.03;5229528;26;94987;-68
2024/04/25 02:29:44;;;;;;;;;;;;;;;10.84;40.37;99509.09;5217007;26;94769;-69
2024/04/25 02:32:10;;;;;;;;;;;;;;;10.80;39.79;99506.97;5200190;26;105394;-72
2024/04/25 02:34:36;;;;;;;;;;;;;;;10.79;40.30;99504.59;5243880;26;122710;-69
2024/04/25 02:37:02;;;;;;;;;;;;;;;10.79;40.25;99508.09;5204734;26;98373;-72
2024/04/25 02:39:28;;;;;;;;;;;;;;;10.78;40.06;99498.41;5248269;26;100864;-69
2024/04/25 02:41:54;;;;;;;;;;;;;;;10.77;40.30;99502.19;5215628;26;94302;-71
2024/04/25 02:44:21;;;;;;;;;;;;;;;10.76;39.99;99500.56;5216039;26;124030;-72
2024/04/25 02:46:47;;;;;;;;;;;;;;;10.76;39.90;99502.47;5252733;26;94590;-71
2024/04/25 02:49:13;;;;;;;;;;;;;;;10.76;39.98;99491.69;5200742;26;116120;-72
2024/04/25 02:51:40;;;;;;;;;;;;;;;10.75;40.13;99496.28;5190778;26;94929;-69
2024/04/25 02:54:06;;;;;;;;;;;;;;;10.76;40.39;99497.06;5215516;26;94349;-71
2024/04/25 02:56:32;;;;;;;;;;;;;;;10.74;40.02;99496.59;5199259;26;109131;-71
2024/04/25 02:58:58;;;;;;;;;;;;;;;10.74;39.97;99496.59;5220482;26;94844;-69
2024/04/25 03:01:24;;;;;;;;;;;;;;;10.74;40.50;99491.19;5227906;26;94461;-72
2024/04/25 03:03:50;;;;;;;;;;;;;;;10.73;40.06;99492.28;5221339;26;125139;-71
2024/04/25 03:06:16;;;;;;;;;;;;;;;10.72;40.03;99490.66;5246006;26;125249;-71
2024/04/25 03:08:42;;;;;;;;;;;;;;;10.71;40.04;99489.88;5213154;26;125860;-68
2024/04/25 03:11:08;;;;;;;;;;;;;;;10.70;40.16;99496.34;5274771;26;94358;-71
2024/04/25 03:13:34;;;;;;;;;;;;;;;10.69;40.35;99492.06;5200668;26;124784;-71
2024/04/25 03:16:04;;;;;;;;;;;;;;;10.70;40.49;99496.34;5232963;26;96247;-71
2024/04/25 03:18:30;;;;;;;;;;;;;;;10.69;39.86;99504.72;5231115;26;94205;-71
2024/04/25 03:21:06;;;;;;;;;;;;;;;10.69;40.29;99492.06;5196557;26;94071;-68
2024/04/25 03:23:35;;;;;;;;;;;;;;;10.69;40.31;99496.63;5225414;26;94549;-69
2024/04/25 03:26:04;;;;;;;;;;;;;;;10.70;40.03;99498.25;5216494;26;96431;-68
2024/04/25 03:28:33;;;;;;;;;;;;;;;10.69;40.16;99494.78;5205382;26;126215;-71
2024/04/25 03:31:00;;;;;;;;;;;;;;;10.71;39.96;99494.47;5199987;26;96062;-68
2024/04/25 03:33:26;;;;;;;;;;;;;;;10.71;39.96;99489.06;5232103;26;97074;-71
2024/04/25 03:35:52;;;;;;;;;;;;;;;10.71;40.11;99492.56;5249061;26;94529;-71
2024/04/25 03:38:18;;;;;;;;;;;;;;;10.70;40.26;99490.97;5214778;26;124360;-69
2024/04/25 03:40:44;;;;;;;;;;;;;;;10.70;40.10;99493.66;5223218;26;100184;-68
2024/04/25 03:43:10;;;;;;;;;;;;;;;10.70;40.17;99499.06;5225714;26;94172;-71
2024/04/25 03:45:36;;;;;;;;;;;;;;;10.71;40.50;99491.78;5219303;26;104733;-71
2024/04/25 03:48:01;;;;;;;;;;;;;;;10.72;40.45;99487.97;5229167;26;121779;-71
2024/04/25 03:50:28;;;;;;;;;;;;;;;10.72;40.30;99491.47;5258254;26;110829;-71
2024/04/25 03:52:54;;;;;;;;;;;;;;;10.73;40.50;99492.28;5249378;26;96076;-68
2024/04/25 03:55:20;;;;;;;;;;;;;;;10.74;40.40;99493.88;5195150;26;110473;-68
2024/04/25 03:57:46;;;;;;;;;;;;;;;10.74;39.98;99496.59;5246618;26;94150;-71
2024/04/25 04:00:12;;;;;;;;;;;;;;;10.75;40.05;99493.59;5218855;26;109981;-68
2024/04/25 04:02:38;;;;;;;;;;;;;;;10.74;40.10;99486.59;5258827;26;95220;-71
2024/04/25 04:05:04;;;;;;;;;;;;;;;10.75;40.23;99492.78;5224016;26;97392;-71
2024/04/25 04:07:30;;;;;;;;;;;;;;;10.76;40.44;99499.78;5222163;26;94823;-67
2024/04/25 04:09:56;;;;;;;;;;;;;;;10.77;40.16;99498.69;5193042;26;113454;-71
2024/04/25 04:12:23;;;;;;;;;;;;;;;10.78;40.11;99500.31;5227367;26;94488;-67
2024/04/25 04:14:49;;;;;;;;;;;;;;;10.77;40.35;99490.63;5202968;26;98648;-68
2024/04/25 04:17:15;;;;;;;;;;;;;;;10.80;40.18;99498.09;5196941;26;95210;-69
2024/04/25 04:19:41;;;;;;;;;;;;;;;10.81;40.48;99499.72;5254854;26;94643;-71
2024/04/25 04:22:07;;;;;;;;;;;;;;;10.82;40.02;99501.31;5257244;26;126766;-71
2024/04/25 04:24:34;;;;;;;;;;;;;;;10.84;40.18;99501.81;5197502;26;94345;-71
2024/04/25 04:27:00;;;;;;;;;;;;;;;10.87;40.26;99505.81;5203332;26;95830;-71
2024/04/25 04:29:26;;;;;;;;;;;;;;;10.90;40.44;99506.03;5192124;26;94240;-69
2024/04/25 04:31:52;;;;;;;;;;;;;;;10.94;40.31;99501.66;5216365;26;94731;-69
2024/04/25 04:34:19;;;;;;;;;;;;;;;10.94;39.83;99507.06;5217238;26;123451;-71
2024/04/25 04:36:45;;;;;;;;;;;;;;;10.94;40.19;99504.38;5214341;26;100571;-71
2024/04/25 04:39:11;;;;;;;;;;;;;;;10.95;40.08;99491.69;5197796;26;94356;-72
2024/04/25 04:41:37;;;;;;;;;;;;;;;11.00;40.17;99497.81;5253309;26;106228;-71
2024/04/25 04:44:03;;;;;;;;;;;;;;;11.06;39.86;99495.81;5198025;26;102198;-71
2024/04/25 04:46:29;;;;;;;;;;;;;;;11.15;39.76;99498.66;5251086;26;96493;-71
2024/04/25 04:48:55;;;;;;;;;;;;;;;11.25;39.77;99504.69;5194581;26;101092;-71
2024/04/25 04:51:21;;;;;;;;;;;;;;;11.31;40.26;99500.81;5189152;26;95076;-69
2024/04/25 04:53:47;;;;;;;;;;;;;;;11.38;40.17;99503.13;5213136;26;94494;-71
2024/04/25 04:56:13;;;;;;;;;;;;;;;11.46;40.13;99501.66;5200011;26;96717;-69
2024/04/25 04:58:40;;;;;;;;;;;;;;;11.59;39.77;99503.56;5199222;26;106748;-69
2024/04/25 05:01:06;;;;;;;;;;;;;;;11.72;40.22;99499.31;5218143;26;94864;-72
2024/04/25 05:03:32;;;;;;;;;;;;;;;11.84;40.32;99506.97;5218709;26;94699;-69
2024/04/25 05:05:58;;;;;;;;;;;;;;;11.91;40.21;99500.06;5191907;26;94304;-71
2024/04/25 05:08:24;;;;;;;;;;;;;;;12.00;39.82;99505.56;5218647;26;108817;-71
2024/04/25 05:10:50;;;;;;;;;;;;;;;12.06;40.17;99500.84;5205636;26;94902;-71
2024/04/25 05:13:16;;;;;;;;;;;;;;;12.11;40.32;99500.78;5196523;26;124699;-69
2024/04/25 05:15:42;;;;;;;;;;;;;;;12.14;40.46;99497.44;5217970;26;95377;-69
2024/04/25 05:18:09;;;;;;;;;;;;;;;12.14;39.83;99497.44;5226189;26;94250;-72
2024/04/25 05:20:34;;;;;;;;;;;;;;;12.11;40.44;99490.78;5225136;26;94755;-71
2024/04/25 05:23:01;;;;;;;;;;;;;;;12.19;39.89;99498.16;5216194;26;110120;-71
2024/04/25 05:25:27;;;;;;;;;;;;;;;12.25;39.82;99498.84;5198265;26;94370;-72
2024/04/25 05:27:54;;;;;;;;;;;;;;;12.41;39.92;99496.63;5213951;26;96763;-71
2024/04/25 05:30:23;;;;;;;;;;;;;;;12.58;39.48;99496.81;5250316;26;95388;-71
2024/04/25 05:32:49;;;;;;;;;;;;;;;12.75;39.72;99502.38;5212024;26;94752;-69
2024/04/25 05:35:16;;;;;;;;;;;;;;;13.04;39.44;99506.59;5186593;26;94652;-69
2024/04/25 05:37:42;;;;;;;;;;;;;;;13.26;39.01;99501.22;5214410;26;94955;-72
2024/04/25 05:40:08;;;;;;;;;;;;;;;13.34;39.37;99501.59;5249760;26;94144;-72
2024/04/25 05:42:34;;;;;;;;;;;;;;;13.53;39.46;99502.19;5243872;26;95854;-71
2024/04/25 05:45:00;;;;;;;;;;;;;;;13.69;39.42;99497.97;5200290;26;94503;-69
2024/04/25 05:47:26;;;;;;;;;;;;;;;13.91;39.33;99499.00;5217700;26;111851;-69
2024/04/25 05:49:52;;;;;;;;;;;;;;;14.20;38.92;99499.28;5217330;26;94440;-72
2024/04/25 05:52:18;;;;;;;;;;;;;;;14.52;39.17;99496.53;5251056;26;123960;-69
2024/04/25 05:54:45;;;;;;;;;;;;;;;14.80;38.66;99486.19;5246200;26;94701;-69
2024/04/25 05:57:10;;;;;;;;;;;;;;;15.01;38.68;99492.56;5222702;26;95116;-69
2024/04/25 05:59:36;;;;;;;;;;;;;;;15.29;38.97;99492.19;5185523;26;103470;-68
2024/04/25 06:02:02;;;;;;;;;;;;;;;15.47;38.43;99486.44;5188269;26;117543;-69
2024/04/25 06:04:30;;;;;;;;;;;;;;;15.52;39.22;99485.44;5212224;26;94580;-69
2024/04/25 06:06:57;;;;;;;;;;;;;;;15.39;39.21;99486.44;5199028;26;94270;-69
2024/04/25 06:09:23;;;;;;;;;;;;;;;15.55;39.41;99490.25;5212967;26;94714;-72
2024/04/25 06:11:49;;;;;;;;;;;;;;;15.52;38.93;99492.81;5245001;26;94868;-72
2024/04/25 06:14:15;;;;;;;;;;;;;;;15.64;39.13;99493.75;5224883;26;94860;-69
2024/04/25 06:16:41;;;;;;;;;;;;;;;15.75;39.14;99498.84;5201315;26;95477;-72
2024/04/25 06:19:08;;;;;;;;;;;;;;;15.67;39.10;99503.19;5215086;26;98750;-71
2024/04/25 06:21:34;;;;;;;;;;;;;;;15.63;39.72;99500.28;5241576;26;94584;-69
2024/04/25 06:24:02;;;;;;;;;;;;;;;15.66;39.36;99496.16;5248985;26;113328;-72
2024/04/25 06:26:28;;;;;;;;;;;;;;;15.62;38.98;99500.63;5194597;26;94798;-72
2024/04/25 06:28:54;;;;;;;;;;;;;;;15.58;39.59;99503.19;5214696;26;95870;-69
2024/04/25 06:31:20;;;;;;;;;;;;;;;15.57;39.20;99503.50;5221615;26;96079;-72
2024/04/25 06:33:47;;;;;;;;;;;;;;;15.51;39.16;99502.88;5187589;26;96332;-72
2024/04/25 06:36:12;;;;;;;;;;;;;;;15.51;39.58;99502.09;5216304;26;113402;-69
2024/04/25 06:38:39;;;;;;;;;;;;;;;15.58;39.17;99507.81;5251082;26;125159;-69
2024/04/25 06:41:05;;;;;;;;;;;;;;;15.45;39.91;99506.91;5191575;26;95951;-69
2024/04/25 06:43:31;;;;;;;;;;;;;;;15.36;39.83;99509.59;5248338;26;108689;-70
2024/04/25 06:45:57;;;;;;;;;;;;;;;15.31;39.84;99508.97;5219972;26;94152;-69
2024/04/25 06:48:23;;;;;;;;;;;;;;;15.24;40.14;99512.19;5186072;26;94509;-69
2024/04/25 06:50:49;;;;;;;;;;;;;;;15.23;39.96;99505.16;5257511;26;94392;-69
2024/04/25 06:53:15;;;;;;;;;;;;;;;15.26;39.63;99520.81;5214995;26;94454;-69
2024/04/25 06:55:43;;;;;;;;;;;;;;;15.16;39.96;99513.78;5189077;26;101601;-72
2024/04/25 06:58:09;;;;;;;;;;;;;;;15.13;40.09;99516.34;5248129;26;94532;-69
2024/04/25 07:00:36;;;;;;;;;;;;;;;15.05;40.20;99520.69;5207530;26;98675;-69
2024/04/25 07:03:02;;;;;;;;;;;;;;;15.05;39.67;99523.38;5218139;26;94460;-69
2024/04/25 07:05:28;;;;;;;;;;;;;;;15.08;40.19;99516.50;5219569;26;95058;-69
2024/04/25 07:07:56;;;;;;;;;;;;;;;15.09;39.83;99528.94;5229482;26;124561;-69
2024/04/25 07:10:25;;;;;;;;;;;;;;;15.08;40.11;99520.00;5217257;26;94986;-71
2024/04/25 07:12:51;;;;;;;;;;;;;;;15.09;40.13;99527.06;5215023;26;94315;-68
2024/04/25 07:15:20;;;;;;;;;;;;;;;15.16;39.91;99521.13;5223386;26;94596;-72
2024/04/25 07:17:46;;;;;;;;;;;;;;;15.43;39.93;99534.34;5215429;26;94567;-72
2024/04/25 07:20:12;;;;;;;;;;;;;;;15.69;39.61;99526.19;5190084;26;123701;-70
2024/04/25 07:22:38;;;;;;;;;;;;;;;15.69;39.32;99531.63;5198612;26;96427;-70
2024/04/25 07:25:04;;;;;;;;;;;;;;;15.64;39.37;99525.53;5196666;26;102881;-69
2024/04/25 07:27:31;;;;;;;;;;;;;;;15.62;39.67;99530.50;5190524;26;96414;-70
2024/04/25 07:29:57;;;;;;;;;;;;;;;15.77;39.34;99530.00;5216909;26;94279;-72
2024/04/25 07:32:23;;;;;;;;;;;;;;;16.20;39.75;99532.56;5215599;26;94830;-69
2024/04/25 07:34:49;;;;;;;;;;;;;;;16.49;38.59;99528.25;5188873;26;94778;-69
2024/04/25 07:37:15;;;;;;;;;;;;;;;17.00;38.25;99529.06;5219938;26;113856;-69
2024/04/25 07:39:41;;;;;;;;;;;;;;;17.09;38.94;99521.59;5223788;26;95218;-69
2024/04/25 07:42:09;;;;;;;;;;;;;;;17.12;38.98;99526.38;5218865;26;94439;-69
2024/04/25 07:44:35;;;;;;;;;;;;;;;17.31;39.24;99525.13;5212171;26;96526;-69
2024/04/25 07:47:04;;;;;;;;;;;;;;;17.63;38.19;99515.34;5184230;26;94202;-69
2024/04/25 07:49:29;;;;;;;;;;;;;;;17.63;38.91;99520.78;5193434;26;95462;-68
2024/04/25 07:51:55;;;;;;;;;;;;;;;17.63;38.64;99515.34;5186684;26;125794;-70
2024/04/25 07:54:21;;;;;;;;;;;;;;;18.08;38.19;99512.59;5185538;26;94728;-70
2024/04/25 07:56:47;;;;;;;;;;;;;;;19.74;36.92;99502.63;5213328;26;125100;-72
2024/04/25 07:59:13;;;;;;;;;;;;;;;19.45;37.68;99515.50;5251859;26;121825;-70
2024/04/25 08:01:39;;;;;;;;;;;;;;;18.94;38.62;99506.25;5216065;26;123416;-70
2024/04/25 08:04:05;;;;;;;;;;;;;;;18.64;38.96;99515.53;5186510;26;115325;-72
2024/04/25 08:06:34;;;;;;;;;;;;;;;18.47;39.04;99514.97;5249516;26;94335;-71
2024/04/25 08:09:00;;;;;;;;;;;;;;;19.33;38.63;99519.06;5194862;26;94852;-69
2024/04/25 08:11:26;;;;;;;;;;;;;;;21.67;36.93;99510.38;5193452;26;94822;-69
2024/04/25 08:13:52;;;;;;;;;;;;;;;23.63;35.30;99512.38;5188173;26;94513;-70
2024/04/25 08:16:18;;;;;;;;;;;;;;;23.50;36.02;99533.03;5220255;26;113632;-70
2024/04/25 08:18:44;;;;;;;;;;;;;;;22.67;37.21;99533.97;5202562;26;120247;-67
2024/04/25 08:21:10;;;;;;;;;;;;;;;22.22;38.42;99540.34;5243785;26;117831;-70
2024/04/25 08:23:36;;;;;;;;;;;;;;;22.00;37.93;99539.16;5255402;26;94984;-68
2024/04/25 08:26:04;;;;;;;;;;;;;;;21.61;37.76;99535.72;5211261;26;111023;-70
2024/04/25 08:28:30;;;;;;;;;;;;;;;21.35;38.99;99542.69;5189969;26;95946;-67
2024/04/25 08:30:55;;;;;;;;;;;;;;;21.20;37.97;99538.03;5186163;26;94222;-66
2024/04/25 08:33:21;;;;;;;;;;;;;;;21.12;38.86;99539.84;5210456;26;101194;-68
2024/04/25 08:35:47;;;;;;;;;;;;;;;21.05;39.22;99531.47;5188992;26;108936;-71
2024/04/25 08:38:13;;;;;;;;;;;;;;;22.28;37.57;99530.63;5273278;26;124260;-69
2024/04/25 08:40:39;;;;;;;;;;;;;;;22.45;37.22;99532.88;5267615;26;119983;-69
2024/04/25 08:43:05;;;;;;;;;;;;;;;22.58;37.60;99532.66;5248893;26;95993;-69
2024/04/25 08:45:32;;;;;;;;;;;;;;;22.29;38.12;99533.03;5273886;26;113791;-71
2024/04/25 08:47:58;;;;;;;;;;;;;;;22.12;37.93;99524.47;5199927;26;95503;-71
2024/04/25 08:50:27;;;;;;;;;;;;;;;22.87;37.23;99529.16;5192114;26;94370;-69
2024/04/25 08:52:53;;;;;;;;;;;;;;;22.05;37.97;99541.63;5226107;26;95542;-69
2024/04/25 08:55:19;;;;;;;;;;;;;;;21.38;39.34;99565.81;5183890;26;121063;-68
2024/04/25 08:57:45;;;;;;;;;;;;;;;20.77;39.20;99578.22;5216385;26;97147;-65
2024/04/25 09:00:11;;;;;;;;;;;;;;;20.25;40.08;99577.38;5195990;26;114753;-68
2024/04/25 09:02:38;;;;;;;;;;;;;;;19.79;40.21;99584.38;5248884;26;94538;-68
2024/04/25 09:05:07;;;;;;;;;;;;;;;19.35;40.29;99598.75;5251682;26;122891;-68
2024/04/25 09:07:33;;;;;;;;;;;;;;;18.94;40.22;99602.59;5229835;26;96156;-68
2024/04/25 09:09:59;;;;;;;;;;;;;;;18.57;40.40;99604.56;5216592;26;124764;-68
2024/04/25 09:12:32;;;;;;;;;;;;;;;18.24;40.92;99610.13;5227347;26;104404;-68
2024/04/25 09:15:01;;;;;;;;;;;;;;;17.91;40.89;99605.47;5221281;26;96171;-68
2024/04/25 09:17:27;;;;;;;;;;;;;;;17.62;40.97;99590.84;5223002;26;124994;-65
2024/04/25 09:19:53;;;;;;;;;;;;;;;17.47;40.19;99593.38;5228068;26;96313;-65
2024/04/25 09:22:19;;;;;;;;;;;;;;;17.31;40.35;99590.47;5215073;26;99014;-68
2024/04/25 09:24:45;;;;;;;;;;;;;;;17.25;40.18;99583.63;5251380;26;94755;-66
2024/04/25 09:27:11;;;;;;;;;;;;;;;17.33;40.06;99580.03;5188227;26;94852;-66
2024/04/25 09:29:37;;;;;;;;;;;;;;;17.33;39.94;99578.13;5215239;26;103832;-68
2024/04/25 09:32:04;;;;;;;;;;;;;;;17.43;39.95;99576.91;5184766;26;113157;-67
2024/04/25 09:34:30;;;;;;;;;;;;;;;17.74;40.13;99578.38;5191477;26;97083;-69
2024/04/25 09:36:56;;;;;;;;;;;;;;;18.19;39.05;99570.19;5217866;26;94726;-70
2024/04/25 09:39:22;;;;;;;;;;;;;;;18.82;38.43;99572.59;5249403;26;95819;-70
2024/04/25 09:41:48;;;;;;;;;;;;;;;20.02;37.54;99568.19;5209752;26;113763;-68
2024/04/25 09:44:14;;;;;;;;;;;;;;;20.40;37.37;99574.97;5197384;26;101674;-67
2024/04/25 09:46:51;;;;;;;;;;;;;;;20.87;38.28;99571.38;5196271;26;94460;-68
2024/04/25 09:49:17;;;;;;;;;;;;;;;20.96;37.24;99580.22;5212075;26;94298;-70
2024/04/25 09:51:46;;;;;;;;;;;;;;;20.27;38.74;99585.22;5246500;26;94705;-70
2024/04/25 09:54:16;;;;;;;;;;;;;;;19.80;38.88;99588.69;5242939;26;123156;-70
2024/04/25 09:56:43;;;;;;;;;;;;;;;19.58;39.54;99595.50;5223464;26;95608;-67
2024/04/25 09:59:18;;;;;;;;;;;;;;;19.26;39.51;99597.34;5220138;26;125800;-67
2024/04/25 10:01:44;;;;;;;;;;;;;;;18.95;39.74;99589.78;5250492;26;94547;-70
2024/04/25 10:04:10;;;;;;;;;;;;;;;18.78;39.77;99596.25;5226095;26;125331;-67
2024/04/25 10:06:36;;;;;;;;;;;;;;;18.67;39.47;99595.94;5218772;26;125375;-70
2024/04/25 10:09:02;;;;;;;;;;;;;;;18.70;39.60;99591.69;5242536;26;108865;-70
2024/04/25 10:11:29;;;;;;;;;;;;;;;19.90;38.52;99582.72;5192164;26;94133;-70
2024/04/25 10:13:55;;;;;;;;;;;;;;;20.55;37.78;99574.19;5226382;26;95718;-68
2024/04/25 10:16:22;;;;;;;;;;;;;;;24.77;34.68;99550.28;5215968;26;120230;-68
2024/04/25 10:18:49;;;;;;;;;;;;;;;25.56;34.33;99554.19;5252090;26;109261;-71
2024/04/25 10:21:15;;;;;;;;;;;;;;;24.83;35.65;99568.03;5224320;26;95960;-71
2024/04/25 10:23:41;;;;;;;;;;;;;;;25.44;35.45;99569.13;5219607;26;123762;-68
2024/04/25 10:26:20;;;;;;;;;;;;;;;26.62;34.48;99559.03;5220292;26;118388;-71
2024/04/25 10:28:59;;;;;;;;;;;;;;;26.97;35.91;99565.66;5256002;26;94557;-71
2024/04/25 10:31:38;;;;;;;;;;;;;;;29.68;33.27;99564.66;5215343;26;94508;-68
2024/04/25 10:34:04;;;;;;;;;;;;;;;31.28;32.94;99563.88;5193474;26;96093;-68
2024/04/25 10:36:30;;;;;;;;;;;;;;;32.09;32.59;99571.66;5216753;26;94175;-69
2024/04/25 10:38:57;;;;;;;;;;;;;;;32.74;33.23;99574.38;5205065;26;94933;-74
2024/04/25 10:41:36;;;;;;;;;;;;;;;33.49;33.05;99574.31;5199345;26;95391;-74
2024/04/25 10:44:02;;;;;;;;;;;;;;;34.33;32.98;99566.44;5225001;26;94438;-73
2024/04/25 10:46:28;;;;;;;;;;;;;;;35.09;32.09;99561.84;5222786;26;94310;-74
2024/04/25 10:48:54;;;;;;;;;;;;;;;33.83;33.79;99554.09;5250873;26;95314;-69
2024/04/25 10:51:20;;;;;;;;;;;;;;;34.61;33.93;99544.34;5183800;26;114306;-74
2024/04/25 10:53:48;;;;;;;;;;;;;;;35.44;32.93;99542.91;5254316;26;127202;-74
2024/04/25 10:56:17;;;;;;;;;;;;;;;36.13;32.87;99544.59;5226653;26;94699;-68
2024/04/25 10:58:53;;;;;;;;;;;;;;;36.75;32.19;99540.78;5187822;26;95452;-69
2024/04/25 11:01:30;;;;;;;;;;;;;;;36.93;33.07;99537.94;5202672;26;94407;-69
2024/04/25 11:04:00;;;;;;;;;;;;;;;35.39;34.41;99532.31;5229009;26;94634;-69
2024/04/25 11:06:27;;;;;;;;;;;;;;;36.19;34.05;99531.50;5226305;26;94790;-73
2024/04/25 11:08:57;;;;;;;;;;;;;;;33.95;36.04;99533.72;5227816;26;95233;-73
2024/04/25 11:11:26;;;;;;;;;;;;;;;33.87;35.61;99546.38;5196032;26;94586;-72
2024/04/25 11:13:53;;;;;;;;;;;;;;;35.75;34.41;99533.72;5227680;26;94610;-69
2024/04/25 11:16:20;;;;;;;;;;;;;;;36.30;34.01;99548.66;5231634;26;95004;-68
2024/04/25 11:18:51;;;;;;;;;;;;;;;36.60;33.55;99540.63;5226134;26;111763;-70
2024/04/25 11:21:17;;;;;;;;;;;;;;;36.94;33.38;99530.31;5251737;26;94337;-73
2024/04/25 11:23:43;;;;;;;;;;;;;;;37.15;33.87;99537.00;5217411;26;95886;-70
2024/04/25 11:26:09;;;;;;;;;;;;;;;36.65;34.27;99527.97;5226853;26;97687;-73
2024/04/25 11:28:36;;;;;;;;;;;;;;;36.24;34.44;99524.53;5216878;26;100154;-72
2024/04/25 11:31:02;;;;;;;;;;;;;;;36.55;34.71;99530.00;5191950;26;94691;-69
2024/04/25 11:33:29;;;;;;;;;;;;;;;36.96;34.07;99519.41;5195373;26;98029;-69
2024/04/25 11:35:56;;;;;;;;;;;;;;;37.47;34.11;99525.03;5217359;26;94773;-69
2024/04/25 11:38:30;;;;;;;;;;;;;;;37.88;33.61;99524.72;5212713;26;95027;-69
2024/04/25 11:40:57;;;;;;;;;;;;;;;38.20;33.46;99523.91;5239254;26;94779;-73
2024/04/25 11:43:25;;;;;;;;;;;;;;;38.14;33.46;99527.84;5203444;26;96355;-69
2024/04/25 11:45:51;;;;;;;;;;;;;;;37.49;34.32;99527.38;5224735;26;94300;-69
2024/04/25 11:48:18;;;;;;;;;;;;;;;36.79;35.03;99525.31;5224085;26;94607;-69
2024/04/25 11:50:44;;;;;;;;;;;;;;;35.79;36.04;99521.13;5215335;26;94318;-72
2024/04/25 11:53:10;;;;;;;;;;;;;;;34.45;36.72;99523.69;5225948;26;94536;-71
2024/04/25 11:55:37;;;;;;;;;;;;;;;33.38;37.17;99534.75;5219128;26;95759;-72
2024/04/25 11:58:03;;;;;;;;;;;;;;;32.39;37.71;99533.50;5199758;26;96502;-70
2024/04/25 12:00:29;;;;;;;;;;;;;;;31.50;37.83;99528.81;5223714;26;98535;-70
2024/04/25 12:02:55;;;;;;;;;;;;;;;31.27;38.45;99528.91;5222710;26;96054;-70
2024/04/25 12:05:22;;;;;;;;;;;;;;;32.12;36.46;99522.63;5218304;26;94272;-69
2024/04/25 12:07:51;;;;;;;;;;;;;;;32.91;35.89;99527.69;5247165;26;94481;-71
2024/04/25 12:10:17;;;;;;;;;;;;;;;31.62;37.66;99529.38;5202856;26;94756;-71
2024/04/25 12:12:43;;;;;;;;;;;;;;;30.83;37.77;99528.22;5190885;26;94314;-69
2024/04/25 12:15:11;;;;;;;;;;;;;;;30.16;37.94;99528.22;5218914;26;96509;-69
2024/04/25 12:17:38;;;;;;;;;;;;;;;29.53;37.84;99534.28;5251960;26;94388;-70
2024/04/25 12:20:05;;;;;;;;;;;;;;;28.94;39.19;99540.19;5222124;26;95164;-70
2024/04/25 12:22:32;;;;;;;;;;;;;;;28.39;39.33;99524.53;5219786;26;95737;-70
2024/04/25 12:24:58;;;;;;;;;;;;;;;27.84;38.99;99537.22;5209676;26;94572;-70
2024/04/25 12:27:24;;;;;;;;;;;;;;;27.33;39.67;99533.16;5206533;26;98978;-69
2024/04/25 12:29:51;;;;;;;;;;;;;;;26.97;39.65;99528.94;5250247;26;94718;-68
2024/04/25 12:32:17;;;;;;;;;;;;;;;26.75;39.76;99530.97;5221898;26;94426;-69
2024/04/25 12:34:43;;;;;;;;;;;;;;;26.56;38.98;99529.44;5219048;26;95295;-68
2024/04/25 12:37:11;;;;;;;;;;;;;;;26.31;39.27;99532.22;5211161;26;100300;-69
2024/04/25 12:39:41;;;;;;;;;;;;;;;25.94;39.72;99534.19;5230227;26;94482;-69
2024/04/25 12:42:08;;;;;;;;;;;;;;;25.46;39.18;99536.44;5200313;26;97073;-68
2024/04/25 12:44:35;;;;;;;;;;;;;;;25.02;40.13;99551.19;5255990;26;100302;-69